sensor_id;sensor_type;location;lat;lon;timestamp;P1;durP1;ratioP1;P2;durP2;ratioP2
24259;SDS011;12384;48.112;18.418;2023-04-07T00:02:06;25.67;;;23.47;;
24259;SDS011;12384;48.112;18.418;2023-04-07T00:04:34;24.70;;;22.57;;
24259;SDS011;12384;48.112;18.418;2023-04-07T00:07:03;24.93;;;22.70;;
24259;SDS011;12384;48.112;18.418;2023-04-07T00:09:31;26.50;;;24.10;;
24259;SDS011;12384;48.112;18.418;2023-04-07T00:12:00;26.10;;;23.53;;
24259;SDS011;12384;48.112;18.418;2023-04-07T00:14:28;25.57;;;23.10;;
24259;SDS011;12384;48.112;18.418;2023-04-07T00:16:58;25.10;;;22.80;;
24259;SDS011;12384;48.112;18.418;2023-04-07T00:19:26;25.60;;;23.27;;
24259;SDS011;12384;48.112;18.418;2023-04-07T00:21:55;25.63;;;23.27;;
24259;SDS011;12384;48.112;18.418;2023-04-07T00:24:23;25.20;;;22.80;;
24259;SDS011;12384;48.112;18.418;2023-04-07T00:27:00;24.67;;;22.43;;
24259;SDS011;12384;48.112;18.418;2023-04-07T00:29:28;24.80;;;22.53;;
24259;SDS011;12384;48.112;18.418;2023-04-07T00:31:58;25.13;;;22.70;;
24259;SDS011;12384;48.112;18.418;2023-04-07T00:34:27;24.40;;;22.20;;
24259;SDS011;12384;48.112;18.418;2023-04-07T00:36:55;23.73;;;21.63;;
24259;SDS011;12384;48.112;18.418;2023-04-07T00:39:24;25.17;;;22.67;;
24259;SDS011;12384;48.112;18.418;2023-04-07T00:41:53;25.57;;;23.17;;
24259;SDS011;12384;48.112;18.418;2023-04-07T00:44:22;24.93;;;22.53;;
24259;SDS011;12384;48.112;18.418;2023-04-07T00:46:50;24.10;;;21.90;;
24259;SDS011;12384;48.112;18.418;2023-04-07T00:49:21;25.40;;;23.07;;
24259;SDS011;12384;48.112;18.418;2023-04-07T00:51:49;27.07;;;24.50;;
24259;SDS011;12384;48.112;18.418;2023-04-07T00:54:18;24.63;;;22.43;;
24259;SDS011;12384;48.112;18.418;2023-04-07T00:56:46;24.60;;;22.33;;
24259;SDS011;12384;48.112;18.418;2023-04-07T00:59:15;24.57;;;22.37;;
24259;SDS011;12384;48.112;18.418;2023-04-07T01:01:44;24.40;;;22.30;;
24259;SDS011;12384;48.112;18.418;2023-04-07T01:04:25;24.37;;;22.13;;
24259;SDS011;12384;48.112;18.418;2023-04-07T01:07:02;23.87;;;21.70;;
24259;SDS011;12384;48.112;18.418;2023-04-07T01:09:41;23.93;;;21.83;;
24259;SDS011;12384;48.112;18.418;2023-04-07T01:12:17;24.13;;;21.93;;
24259;SDS011;12384;48.112;18.418;2023-04-07T01:14:53;23.10;;;21.00;;
24259;SDS011;12384;48.112;18.418;2023-04-07T01:17:35;23.60;;;21.50;;
24259;SDS011;12384;48.112;18.418;2023-04-07T01:20:07;23.60;;;21.37;;
24259;SDS011;12384;48.112;18.418;2023-04-07T01:22:41;24.30;;;22.10;;
24259;SDS011;12384;48.112;18.418;2023-04-07T01:25:25;23.63;;;21.50;;
24259;SDS011;12384;48.112;18.418;2023-04-07T01:31:01;24.37;;;22.07;;
24259;SDS011;12384;48.112;18.418;2023-04-07T01:33:32;23.50;;;21.40;;
24259;SDS011;12384;48.112;18.418;2023-04-07T01:36:03;23.70;;;21.60;;
24259;SDS011;12384;48.112;18.418;2023-04-07T01:38:34;24.17;;;21.97;;
24259;SDS011;12384;48.112;18.418;2023-04-07T01:41:04;25.33;;;22.83;;
24259;SDS011;12384;48.112;18.418;2023-04-07T01:43:35;24.33;;;22.13;;
24259;SDS011;12384;48.112;18.418;2023-04-07T01:46:08;24.57;;;22.30;;
24259;SDS011;12384;48.112;18.418;2023-04-07T01:48:37;26.10;;;23.53;;
24259;SDS011;12384;48.112;18.418;2023-04-07T01:51:07;23.70;;;21.80;;
24259;SDS011;12384;48.112;18.418;2023-04-07T01:53:43;24.63;;;22.43;;
24259;SDS011;12384;48.112;18.418;2023-04-07T01:56:13;24.53;;;22.23;;
24259;SDS011;12384;48.112;18.418;2023-04-07T01:58:46;24.20;;;22.00;;
24259;SDS011;12384;48.112;18.418;2023-04-07T02:01:18;24.97;;;22.67;;
24259;SDS011;12384;48.112;18.418;2023-04-07T02:03:48;24.57;;;22.37;;
24259;SDS011;12384;48.112;18.418;2023-04-07T02:06:21;23.43;;;21.30;;
24259;SDS011;12384;48.112;18.418;2023-04-07T02:08:56;23.23;;;21.13;;
24259;SDS011;12384;48.112;18.418;2023-04-07T02:11:29;24.10;;;21.90;;
24259;SDS011;12384;48.112;18.418;2023-04-07T02:14:03;24.10;;;21.70;;
24259;SDS011;12384;48.112;18.418;2023-04-07T02:16:47;23.17;;;21.03;;
24259;SDS011;12384;48.112;18.418;2023-04-07T02:19:18;22.23;;;20.23;;
24259;SDS011;12384;48.112;18.418;2023-04-07T02:21:47;23.07;;;20.90;;
24259;SDS011;12384;48.112;18.418;2023-04-07T02:24:18;23.90;;;21.70;;
24259;SDS011;12384;48.112;18.418;2023-04-07T02:26:48;25.17;;;22.67;;
24259;SDS011;12384;48.112;18.418;2023-04-07T02:29:17;22.80;;;20.80;;
24259;SDS011;12384;48.112;18.418;2023-04-07T02:31:45;23.53;;;21.33;;
24259;SDS011;12384;48.112;18.418;2023-04-07T02:34:15;24.00;;;21.77;;
24259;SDS011;12384;48.112;18.418;2023-04-07T02:36:44;26.43;;;23.83;;
24259;SDS011;12384;48.112;18.418;2023-04-07T02:39:12;23.77;;;21.57;;
24259;SDS011;12384;48.112;18.418;2023-04-07T02:41:41;24.53;;;22.33;;
24259;SDS011;12384;48.112;18.418;2023-04-07T02:44:10;23.63;;;21.43;;
24259;SDS011;12384;48.112;18.418;2023-04-07T02:46:38;24.67;;;22.27;;
24259;SDS011;12384;48.112;18.418;2023-04-07T02:49:08;25.97;;;23.53;;
24259;SDS011;12384;48.112;18.418;2023-04-07T02:51:37;24.97;;;22.60;;
24259;SDS011;12384;48.112;18.418;2023-04-07T02:54:05;26.17;;;23.67;;
24259;SDS011;12384;48.112;18.418;2023-04-07T02:56:33;25.63;;;23.20;;
24259;SDS011;12384;48.112;18.418;2023-04-07T02:59:02;25.07;;;22.60;;
24259;SDS011;12384;48.112;18.418;2023-04-07T03:01:35;25.50;;;23.10;;
24259;SDS011;12384;48.112;18.418;2023-04-07T03:04:07;26.13;;;23.67;;
24259;SDS011;12384;48.112;18.418;2023-04-07T03:06:36;26.43;;;23.93;;
24259;SDS011;12384;48.112;18.418;2023-04-07T03:09:09;25.23;;;22.83;;
24259;SDS011;12384;48.112;18.418;2023-04-07T03:11:39;25.73;;;23.43;;
24259;SDS011;12384;48.112;18.418;2023-04-07T03:14:08;25.43;;;23.03;;
24259;SDS011;12384;48.112;18.418;2023-04-07T03:16:46;26.30;;;23.80;;
24259;SDS011;12384;48.112;18.418;2023-04-07T03:19:16;27.13;;;24.37;;
24259;SDS011;12384;48.112;18.418;2023-04-07T03:21:48;26.47;;;23.97;;
24259;SDS011;12384;48.112;18.418;2023-04-07T03:24:16;26.47;;;23.93;;
24259;SDS011;12384;48.112;18.418;2023-04-07T03:26:45;26.77;;;24.17;;
24259;SDS011;12384;48.112;18.418;2023-04-07T03:29:34;26.60;;;24.10;;
24259;SDS011;12384;48.112;18.418;2023-04-07T03:32:05;26.03;;;23.57;;
24259;SDS011;12384;48.112;18.418;2023-04-07T03:34:35;25.97;;;23.27;;
24259;SDS011;12384;48.112;18.418;2023-04-07T03:37:04;26.10;;;23.57;;
24259;SDS011;12384;48.112;18.418;2023-04-07T03:39:35;27.20;;;24.40;;
24259;SDS011;12384;48.112;18.418;2023-04-07T03:42:18;27.33;;;24.83;;
24259;SDS011;12384;48.112;18.418;2023-04-07T03:44:49;26.73;;;24.30;;
24259;SDS011;12384;48.112;18.418;2023-04-07T03:47:18;27.37;;;24.73;;
24259;SDS011;12384;48.112;18.418;2023-04-07T03:49:53;27.43;;;24.93;;
24259;SDS011;12384;48.112;18.418;2023-04-07T03:52:22;27.73;;;25.13;;
24259;SDS011;12384;48.112;18.418;2023-04-07T03:54:57;27.30;;;24.80;;
24259;SDS011;12384;48.112;18.418;2023-04-07T03:57:29;28.07;;;25.40;;
24259;SDS011;12384;48.112;18.418;2023-04-07T03:59:58;28.03;;;25.33;;
24259;SDS011;12384;48.112;18.418;2023-04-07T04:02:29;27.60;;;25.07;;
24259;SDS011;12384;48.112;18.418;2023-04-07T04:05:00;28.87;;;26.17;;
24259;SDS011;12384;48.112;18.418;2023-04-07T04:07:28;27.80;;;25.10;;
24259;SDS011;12384;48.112;18.418;2023-04-07T04:10:03;28.63;;;25.90;;
24259;SDS011;12384;48.112;18.418;2023-04-07T04:12:37;28.63;;;25.93;;
24259;SDS011;12384;48.112;18.418;2023-04-07T04:15:09;28.20;;;25.50;;
24259;SDS011;12384;48.112;18.418;2023-04-07T04:17:38;29.50;;;26.50;;
24259;SDS011;12384;48.112;18.418;2023-04-07T04:20:09;28.13;;;25.33;;
24259;SDS011;12384;48.112;18.418;2023-04-07T04:22:45;29.13;;;26.17;;
24259;SDS011;12384;48.112;18.418;2023-04-07T04:25:13;29.77;;;26.77;;
24259;SDS011;12384;48.112;18.418;2023-04-07T04:27:47;27.73;;;25.13;;
24259;SDS011;12384;48.112;18.418;2023-04-07T04:30:19;29.20;;;26.43;;
24259;SDS011;12384;48.112;18.418;2023-04-07T04:32:52;27.40;;;24.90;;
24259;SDS011;12384;48.112;18.418;2023-04-07T04:35:31;28.33;;;25.57;;
24259;SDS011;12384;48.112;18.418;2023-04-07T04:38:05;27.97;;;25.27;;
24259;SDS011;12384;48.112;18.418;2023-04-07T04:40:36;28.73;;;25.97;;
24259;SDS011;12384;48.112;18.418;2023-04-07T04:43:05;27.47;;;24.93;;
24259;SDS011;12384;48.112;18.418;2023-04-07T04:45:37;28.07;;;25.47;;
24259;SDS011;12384;48.112;18.418;2023-04-07T04:48:09;28.40;;;25.70;;
24259;SDS011;12384;48.112;18.418;2023-04-07T04:50:39;26.73;;;23.83;;
24259;SDS011;12384;48.112;18.418;2023-04-07T04:53:11;26.33;;;23.83;;
24259;SDS011;12384;48.112;18.418;2023-04-07T04:55:52;28.33;;;25.73;;
24259;SDS011;12384;48.112;18.418;2023-04-07T04:58:34;27.40;;;24.90;;
24259;SDS011;12384;48.112;18.418;2023-04-07T05:01:03;27.03;;;24.57;;
24259;SDS011;12384;48.112;18.418;2023-04-07T05:03:40;27.37;;;24.57;;
24259;SDS011;12384;48.112;18.418;2023-04-07T05:06:26;26.73;;;24.27;;
24259;SDS011;12384;48.112;18.418;2023-04-07T05:08:59;24.63;;;22.40;;
24259;SDS011;12384;48.112;18.418;2023-04-07T05:11:36;24.63;;;22.33;;
24259;SDS011;12384;48.112;18.418;2023-04-07T05:14:04;25.20;;;22.80;;
24259;SDS011;12384;48.112;18.418;2023-04-07T05:16:33;24.37;;;22.07;;
24259;SDS011;12384;48.112;18.418;2023-04-07T05:19:04;23.33;;;21.27;;
24259;SDS011;12384;48.112;18.418;2023-04-07T05:21:35;24.50;;;22.10;;
24259;SDS011;12384;48.112;18.418;2023-04-07T05:24:06;24.33;;;22.03;;
24259;SDS011;12384;48.112;18.418;2023-04-07T05:26:36;25.63;;;23.30;;
24259;SDS011;12384;48.112;18.418;2023-04-07T05:29:05;25.83;;;23.50;;
24259;SDS011;12384;48.112;18.418;2023-04-07T05:31:33;25.07;;;22.77;;
24259;SDS011;12384;48.112;18.418;2023-04-07T05:34:07;26.17;;;23.70;;
24259;SDS011;12384;48.112;18.418;2023-04-07T05:36:44;23.90;;;21.70;;
24259;SDS011;12384;48.112;18.418;2023-04-07T05:39:14;23.00;;;21.00;;
24259;SDS011;12384;48.112;18.418;2023-04-07T05:41:43;25.07;;;22.70;;
24259;SDS011;12384;48.112;18.418;2023-04-07T05:44:13;23.97;;;21.70;;
24259;SDS011;12384;48.112;18.418;2023-04-07T05:46:42;23.63;;;21.43;;
24259;SDS011;12384;48.112;18.418;2023-04-07T05:49:12;22.50;;;20.40;;
24259;SDS011;12384;48.112;18.418;2023-04-07T05:51:52;23.80;;;21.60;;
24259;SDS011;12384;48.112;18.418;2023-04-07T05:54:21;25.00;;;22.80;;
24259;SDS011;12384;48.112;18.418;2023-04-07T05:56:51;23.83;;;21.63;;
24259;SDS011;12384;48.112;18.418;2023-04-07T05:59:21;22.23;;;20.33;;
24259;SDS011;12384;48.112;18.418;2023-04-07T06:01:51;22.63;;;20.67;;
24259;SDS011;12384;48.112;18.418;2023-04-07T06:04:19;24.50;;;22.40;;
24259;SDS011;12384;48.112;18.418;2023-04-07T06:06:50;24.57;;;22.27;;
24259;SDS011;12384;48.112;18.418;2023-04-07T06:09:22;22.17;;;20.17;;
24259;SDS011;12384;48.112;18.418;2023-04-07T06:11:51;22.23;;;20.23;;
24259;SDS011;12384;48.112;18.418;2023-04-07T06:14:20;21.33;;;19.37;;
24259;SDS011;12384;48.112;18.418;2023-04-07T06:16:48;22.80;;;20.77;;
24259;SDS011;12384;48.112;18.418;2023-04-07T06:19:17;22.17;;;20.27;;
24259;SDS011;12384;48.112;18.418;2023-04-07T06:21:46;20.93;;;19.03;;
24259;SDS011;12384;48.112;18.418;2023-04-07T06:24:14;23.03;;;21.13;;
24259;SDS011;12384;48.112;18.418;2023-04-07T06:26:44;23.27;;;21.17;;
24259;SDS011;12384;48.112;18.418;2023-04-07T06:29:13;23.20;;;21.23;;
24259;SDS011;12384;48.112;18.418;2023-04-07T06:31:42;23.97;;;21.87;;
24259;SDS011;12384;48.112;18.418;2023-04-07T06:34:11;22.80;;;20.70;;
24259;SDS011;12384;48.112;18.418;2023-04-07T06:36:39;24.67;;;22.47;;
24259;SDS011;12384;48.112;18.418;2023-04-07T06:39:07;23.00;;;20.93;;
24259;SDS011;12384;48.112;18.418;2023-04-07T06:41:36;20.97;;;19.17;;
24259;SDS011;12384;48.112;18.418;2023-04-07T06:44:09;21.80;;;19.87;;
24259;SDS011;12384;48.112;18.418;2023-04-07T06:46:38;21.77;;;19.87;;
24259;SDS011;12384;48.112;18.418;2023-04-07T06:49:07;22.70;;;20.70;;
24259;SDS011;12384;48.112;18.418;2023-04-07T06:51:36;21.90;;;20.00;;
24259;SDS011;12384;48.112;18.418;2023-04-07T06:54:04;22.33;;;20.40;;
24259;SDS011;12384;48.112;18.418;2023-04-07T06:56:38;20.53;;;18.73;;
24259;SDS011;12384;48.112;18.418;2023-04-07T06:59:07;21.13;;;19.33;;
24259;SDS011;12384;48.112;18.418;2023-04-07T07:01:36;22.90;;;20.90;;
24259;SDS011;12384;48.112;18.418;2023-04-07T07:04:05;21.00;;;19.20;;
24259;SDS011;12384;48.112;18.418;2023-04-07T07:06:34;19.47;;;17.77;;
24259;SDS011;12384;48.112;18.418;2023-04-07T07:09:02;19.33;;;17.73;;
24259;SDS011;12384;48.112;18.418;2023-04-07T07:11:31;20.17;;;18.37;;
24259;SDS011;12384;48.112;18.418;2023-04-07T07:14:00;20.27;;;18.47;;
24259;SDS011;12384;48.112;18.418;2023-04-07T07:16:28;20.67;;;18.97;;
24259;SDS011;12384;48.112;18.418;2023-04-07T07:18:58;21.40;;;19.70;;
24259;SDS011;12384;48.112;18.418;2023-04-07T07:21:26;20.70;;;18.97;;
24259;SDS011;12384;48.112;18.418;2023-04-07T07:23:55;20.77;;;19.07;;
24259;SDS011;12384;48.112;18.418;2023-04-07T07:26:23;21.30;;;19.53;;
24259;SDS011;12384;48.112;18.418;2023-04-07T07:28:52;19.40;;;17.70;;
24259;SDS011;12384;48.112;18.418;2023-04-07T07:31:21;21.80;;;20.00;;
24259;SDS011;12384;48.112;18.418;2023-04-07T07:33:50;20.33;;;18.57;;
24259;SDS011;12384;48.112;18.418;2023-04-07T07:36:20;21.27;;;19.57;;
24259;SDS011;12384;48.112;18.418;2023-04-07T07:38:49;20.53;;;18.80;;
24259;SDS011;12384;48.112;18.418;2023-04-07T07:41:17;20.47;;;18.77;;
24259;SDS011;12384;48.112;18.418;2023-04-07T07:43:46;20.33;;;18.60;;
24259;SDS011;12384;48.112;18.418;2023-04-07T07:46:15;21.43;;;19.73;;
24259;SDS011;12384;48.112;18.418;2023-04-07T07:48:43;21.70;;;19.90;;
24259;SDS011;12384;48.112;18.418;2023-04-07T07:51:12;21.00;;;19.40;;
24259;SDS011;12384;48.112;18.418;2023-04-07T07:53:42;19.50;;;17.90;;
24259;SDS011;12384;48.112;18.418;2023-04-07T07:56:11;19.60;;;18.10;;
24259;SDS011;12384;48.112;18.418;2023-04-07T07:58:40;20.80;;;19.20;;
24259;SDS011;12384;48.112;18.418;2023-04-07T08:01:08;19.80;;;17.97;;
24259;SDS011;12384;48.112;18.418;2023-04-07T08:03:37;23.40;;;18.60;;
24259;SDS011;12384;48.112;18.418;2023-04-07T08:06:06;21.77;;;19.60;;
24259;SDS011;12384;48.112;18.418;2023-04-07T08:08:35;20.50;;;18.50;;
24259;SDS011;12384;48.112;18.418;2023-04-07T08:11:05;19.50;;;17.80;;
24259;SDS011;12384;48.112;18.418;2023-04-07T08:13:33;19.40;;;17.70;;
24259;SDS011;12384;48.112;18.418;2023-04-07T08:16:02;18.50;;;16.90;;
24259;SDS011;12384;48.112;18.418;2023-04-07T08:18:31;18.87;;;17.17;;
24259;SDS011;12384;48.112;18.418;2023-04-07T08:20:59;21.87;;;19.87;;
24259;SDS011;12384;48.112;18.418;2023-04-07T08:23:27;19.73;;;17.97;;
24259;SDS011;12384;48.112;18.418;2023-04-07T08:25:56;18.67;;;16.93;;
24259;SDS011;12384;48.112;18.418;2023-04-07T08:28:26;19.83;;;18.13;;
24259;SDS011;12384;48.112;18.418;2023-04-07T08:30:54;17.80;;;16.40;;
24259;SDS011;12384;48.112;18.418;2023-04-07T08:33:23;17.70;;;16.27;;
24259;SDS011;12384;48.112;18.418;2023-04-07T08:35:52;18.27;;;16.67;;
24259;SDS011;12384;48.112;18.418;2023-04-07T08:38:21;18.60;;;17.00;;
24259;SDS011;12384;48.112;18.418;2023-04-07T08:40:50;16.80;;;15.30;;
24259;SDS011;12384;48.112;18.418;2023-04-07T08:43:26;17.17;;;15.77;;
24259;SDS011;12384;48.112;18.418;2023-04-07T08:45:56;16.73;;;15.33;;
24259;SDS011;12384;48.112;18.418;2023-04-07T08:48:26;16.17;;;14.87;;
24259;SDS011;12384;48.112;18.418;2023-04-07T08:51:01;14.30;;;13.17;;
24259;SDS011;12384;48.112;18.418;2023-04-07T08:53:34;14.70;;;13.60;;
24259;SDS011;12384;48.112;18.418;2023-04-07T08:56:10;16.23;;;15.03;;
24259;SDS011;12384;48.112;18.418;2023-04-07T08:58:40;15.87;;;14.57;;
24259;SDS011;12384;48.112;18.418;2023-04-07T09:01:09;15.93;;;14.73;;
24259;SDS011;12384;48.112;18.418;2023-04-07T09:03:38;15.17;;;14.07;;
24259;SDS011;12384;48.112;18.418;2023-04-07T09:06:08;16.63;;;15.33;;
24259;SDS011;12384;48.112;18.418;2023-04-07T09:08:37;17.13;;;15.73;;
24259;SDS011;12384;48.112;18.418;2023-04-07T09:11:06;16.63;;;15.33;;
24259;SDS011;12384;48.112;18.418;2023-04-07T09:13:34;16.33;;;15.03;;
24259;SDS011;12384;48.112;18.418;2023-04-07T09:16:04;16.20;;;14.90;;
24259;SDS011;12384;48.112;18.418;2023-04-07T09:18:33;15.33;;;14.03;;
24259;SDS011;12384;48.112;18.418;2023-04-07T09:21:02;15.73;;;14.53;;
24259;SDS011;12384;48.112;18.418;2023-04-07T09:23:33;15.93;;;14.63;;
24259;SDS011;12384;48.112;18.418;2023-04-07T09:26:17;16.47;;;15.17;;
24259;SDS011;12384;48.112;18.418;2023-04-07T09:28:48;16.73;;;15.43;;
24259;SDS011;12384;48.112;18.418;2023-04-07T09:31:20;16.07;;;14.80;;
24259;SDS011;12384;48.112;18.418;2023-04-07T09:33:51;15.33;;;14.13;;
24259;SDS011;12384;48.112;18.418;2023-04-07T09:36:21;16.20;;;14.90;;
24259;SDS011;12384;48.112;18.418;2023-04-07T09:38:56;15.23;;;14.03;;
24259;SDS011;12384;48.112;18.418;2023-04-07T09:41:35;14.60;;;13.37;;
24259;SDS011;12384;48.112;18.418;2023-04-07T09:44:03;14.40;;;13.23;;
24259;SDS011;12384;48.112;18.418;2023-04-07T09:46:33;14.57;;;13.47;;
24259;SDS011;12384;48.112;18.418;2023-04-07T09:49:02;15.50;;;14.30;;
24259;SDS011;12384;48.112;18.418;2023-04-07T09:51:31;14.40;;;13.30;;
24259;SDS011;12384;48.112;18.418;2023-04-07T09:54:00;15.57;;;14.30;;
24259;SDS011;12384;48.112;18.418;2023-04-07T09:56:29;15.77;;;14.47;;
24259;SDS011;12384;48.112;18.418;2023-04-07T09:58:57;16.57;;;15.27;;
24259;SDS011;12384;48.112;18.418;2023-04-07T10:01:28;15.57;;;14.47;;
24259;SDS011;12384;48.112;18.418;2023-04-07T10:03:58;14.70;;;13.60;;
24259;SDS011;12384;48.112;18.418;2023-04-07T10:06:27;15.70;;;14.50;;
24259;SDS011;12384;48.112;18.418;2023-04-07T10:08:56;14.20;;;13.17;;
24259;SDS011;12384;48.112;18.418;2023-04-07T10:11:25;14.00;;;12.93;;
24259;SDS011;12384;48.112;18.418;2023-04-07T10:13:53;13.67;;;12.67;;
24259;SDS011;12384;48.112;18.418;2023-04-07T10:16:22;14.90;;;13.70;;
24259;SDS011;12384;48.112;18.418;2023-04-07T10:18:52;14.57;;;13.47;;
24259;SDS011;12384;48.112;18.418;2023-04-07T10:21:23;14.33;;;13.33;;
24259;SDS011;12384;48.112;18.418;2023-04-07T10:23:59;14.03;;;13.03;;
24259;SDS011;12384;48.112;18.418;2023-04-07T10:26:36;14.30;;;13.13;;
24259;SDS011;12384;48.112;18.418;2023-04-07T10:29:08;13.90;;;12.87;;
24259;SDS011;12384;48.112;18.418;2023-04-07T10:31:40;15.03;;;13.77;;
24259;SDS011;12384;48.112;18.418;2023-04-07T10:34:09;13.87;;;12.77;;
24259;SDS011;12384;48.112;18.418;2023-04-07T10:39:39;12.30;;;11.50;;
24259;SDS011;12384;48.112;18.418;2023-04-07T10:42:13;12.93;;;12.03;;
24259;SDS011;12384;48.112;18.418;2023-04-07T10:45:17;13.80;;;12.80;;
24259;SDS011;12384;48.112;18.418;2023-04-07T10:48:26;13.63;;;12.63;;
24259;SDS011;12384;48.112;18.418;2023-04-07T10:51:15;13.37;;;12.47;;
24259;SDS011;12384;48.112;18.418;2023-04-07T10:59:40;13.30;;;12.30;;
24259;SDS011;12384;48.112;18.418;2023-04-07T11:02:30;12.77;;;11.87;;
24259;SDS011;12384;48.112;18.418;2023-04-07T11:05:01;13.50;;;12.50;;
24259;SDS011;12384;48.112;18.418;2023-04-07T11:07:43;13.60;;;12.60;;
24259;SDS011;12384;48.112;18.418;2023-04-07T11:10:14;14.23;;;13.23;;
24259;SDS011;12384;48.112;18.418;2023-04-07T11:12:59;14.50;;;13.40;;
24259;SDS011;12384;48.112;18.418;2023-04-07T11:15:29;13.67;;;12.57;;
24259;SDS011;12384;48.112;18.418;2023-04-07T11:18:11;13.43;;;12.53;;
24259;SDS011;12384;48.112;18.418;2023-04-07T11:20:43;13.47;;;12.40;;
24259;SDS011;12384;48.112;18.418;2023-04-07T11:23:14;13.60;;;12.60;;
24259;SDS011;12384;48.112;18.418;2023-04-07T11:25:44;13.47;;;12.47;;
24259;SDS011;12384;48.112;18.418;2023-04-07T11:28:15;13.87;;;12.87;;
24259;SDS011;12384;48.112;18.418;2023-04-07T11:30:45;13.50;;;12.40;;
24259;SDS011;12384;48.112;18.418;2023-04-07T11:33:16;13.27;;;12.27;;
24259;SDS011;12384;48.112;18.418;2023-04-07T11:35:49;13.97;;;12.97;;
24259;SDS011;12384;48.112;18.418;2023-04-07T11:38:19;13.27;;;12.27;;
24259;SDS011;12384;48.112;18.418;2023-04-07T11:40:48;13.47;;;12.47;;
24259;SDS011;12384;48.112;18.418;2023-04-07T11:43:19;13.90;;;12.83;;
24259;SDS011;12384;48.112;18.418;2023-04-07T11:46:02;14.03;;;12.97;;
24259;SDS011;12384;48.112;18.418;2023-04-07T11:48:32;14.90;;;13.80;;
24259;SDS011;12384;48.112;18.418;2023-04-07T11:51:02;13.73;;;12.73;;
24259;SDS011;12384;48.112;18.418;2023-04-07T11:53:32;14.67;;;13.47;;
24259;SDS011;12384;48.112;18.418;2023-04-07T11:56:04;14.87;;;13.67;;
24259;SDS011;12384;48.112;18.418;2023-04-07T11:58:37;13.37;;;12.37;;
24259;SDS011;12384;48.112;18.418;2023-04-07T12:01:05;13.50;;;12.50;;
24259;SDS011;12384;48.112;18.418;2023-04-07T12:03:35;12.97;;;12.00;;
24259;SDS011;12384;48.112;18.418;2023-04-07T12:06:04;13.57;;;12.53;;
24259;SDS011;12384;48.112;18.418;2023-04-07T12:08:37;13.13;;;12.23;;
24259;SDS011;12384;48.112;18.418;2023-04-07T12:11:06;13.00;;;12.10;;
24259;SDS011;12384;48.112;18.418;2023-04-07T12:13:37;16.50;;;15.10;;
24259;SDS011;12384;48.112;18.418;2023-04-07T12:16:05;17.67;;;16.17;;
24259;SDS011;12384;48.112;18.418;2023-04-07T12:18:34;14.90;;;13.83;;
24259;SDS011;12384;48.112;18.418;2023-04-07T12:21:02;16.13;;;14.93;;
24259;SDS011;12384;48.112;18.418;2023-04-07T12:23:31;15.30;;;14.13;;
24259;SDS011;12384;48.112;18.418;2023-04-07T12:25:59;15.10;;;13.90;;
24259;SDS011;12384;48.112;18.418;2023-04-07T12:28:29;14.07;;;13.07;;
24259;SDS011;12384;48.112;18.418;2023-04-07T12:30:58;13.43;;;12.43;;
24259;SDS011;12384;48.112;18.418;2023-04-07T12:33:27;16.20;;;14.90;;
24259;SDS011;12384;48.112;18.418;2023-04-07T12:35:55;16.90;;;15.57;;
24259;SDS011;12384;48.112;18.418;2023-04-07T12:38:24;15.57;;;14.37;;
24259;SDS011;12384;48.112;18.418;2023-04-07T12:40:53;13.73;;;12.73;;
24259;SDS011;12384;48.112;18.418;2023-04-07T12:43:22;15.53;;;14.33;;
24259;SDS011;12384;48.112;18.418;2023-04-07T12:45:50;17.63;;;16.20;;
24259;SDS011;12384;48.112;18.418;2023-04-07T12:48:20;15.80;;;14.60;;
24259;SDS011;12384;48.112;18.418;2023-04-07T12:50:49;16.90;;;15.50;;
24259;SDS011;12384;48.112;18.418;2023-04-07T12:53:17;16.93;;;15.63;;
24259;SDS011;12384;48.112;18.418;2023-04-07T12:55:46;15.03;;;13.83;;
24259;SDS011;12384;48.112;18.418;2023-04-07T12:58:16;16.07;;;14.77;;
24259;SDS011;12384;48.112;18.418;2023-04-07T13:00:45;14.23;;;13.13;;
24259;SDS011;12384;48.112;18.418;2023-04-07T13:03:14;14.27;;;13.17;;
24259;SDS011;12384;48.112;18.418;2023-04-07T13:05:44;17.50;;;16.10;;
24259;SDS011;12384;48.112;18.418;2023-04-07T13:08:14;18.40;;;16.90;;
24259;SDS011;12384;48.112;18.418;2023-04-07T13:10:42;15.63;;;14.43;;
24259;SDS011;12384;48.112;18.418;2023-04-07T13:13:11;16.83;;;15.53;;
24259;SDS011;12384;48.112;18.418;2023-04-07T13:15:39;16.00;;;14.80;;
24259;SDS011;12384;48.112;18.418;2023-04-07T13:18:08;17.67;;;16.17;;
24259;SDS011;12384;48.112;18.418;2023-04-07T13:20:36;16.37;;;15.00;;
24259;SDS011;12384;48.112;18.418;2023-04-07T13:23:06;16.00;;;14.70;;
24259;SDS011;12384;48.112;18.418;2023-04-07T13:25:36;15.63;;;14.33;;
24259;SDS011;12384;48.112;18.418;2023-04-07T13:28:04;15.87;;;14.50;;
24259;SDS011;12384;48.112;18.418;2023-04-07T13:30:33;16.17;;;14.87;;
24259;SDS011;12384;48.112;18.418;2023-04-07T13:33:02;16.90;;;15.50;;
24259;SDS011;12384;48.112;18.418;2023-04-07T13:35:30;15.90;;;14.60;;
24259;SDS011;12384;48.112;18.418;2023-04-07T13:38:01;18.47;;;16.73;;
24259;SDS011;12384;48.112;18.418;2023-04-07T13:40:31;18.13;;;16.73;;
24259;SDS011;12384;48.112;18.418;2023-04-07T13:43:00;16.00;;;14.70;;
24259;SDS011;12384;48.112;18.418;2023-04-07T13:45:28;17.50;;;16.10;;
24259;SDS011;12384;48.112;18.418;2023-04-07T13:47:57;18.63;;;17.07;;
24259;SDS011;12384;48.112;18.418;2023-04-07T13:50:25;16.63;;;15.23;;
24259;SDS011;12384;48.112;18.418;2023-04-07T13:52:54;15.77;;;14.57;;
24259;SDS011;12384;48.112;18.418;2023-04-07T13:55:23;16.30;;;15.10;;
24259;SDS011;12384;48.112;18.418;2023-04-07T13:57:52;17.83;;;16.43;;
24259;SDS011;12384;48.112;18.418;2023-04-07T14:00:21;17.83;;;16.33;;
24259;SDS011;12384;48.112;18.418;2023-04-07T14:02:49;16.83;;;15.50;;
24259;SDS011;12384;48.112;18.418;2023-04-07T14:05:18;16.23;;;15.00;;
24259;SDS011;12384;48.112;18.418;2023-04-07T14:07:46;18.43;;;16.93;;
24259;SDS011;12384;48.112;18.418;2023-04-07T14:10:15;18.27;;;16.77;;
24259;SDS011;12384;48.112;18.418;2023-04-07T14:12:43;18.87;;;17.27;;
24259;SDS011;12384;48.112;18.418;2023-04-07T14:15:13;19.83;;;18.00;;
24259;SDS011;12384;48.112;18.418;2023-04-07T14:17:43;19.57;;;17.87;;
24259;SDS011;12384;48.112;18.418;2023-04-07T14:20:12;18.47;;;16.97;;
24259;SDS011;12384;48.112;18.418;2023-04-07T14:22:40;17.47;;;16.07;;
24259;SDS011;12384;48.112;18.418;2023-04-07T14:25:09;17.73;;;16.30;;
24259;SDS011;12384;48.112;18.418;2023-04-07T14:27:38;17.60;;;16.20;;
24259;SDS011;12384;48.112;18.418;2023-04-07T14:30:07;17.30;;;15.90;;
24259;SDS011;12384;48.112;18.418;2023-04-07T14:32:37;18.90;;;17.40;;
24259;SDS011;12384;48.112;18.418;2023-04-07T14:35:06;19.37;;;17.77;;
24259;SDS011;12384;48.112;18.418;2023-04-07T14:37:35;17.30;;;15.80;;
24259;SDS011;12384;48.112;18.418;2023-04-07T14:40:04;21.17;;;19.07;;
24259;SDS011;12384;48.112;18.418;2023-04-07T14:42:33;18.90;;;17.30;;